createdAt,value
2023-04-12T00:02:35.720Z,1.23
2023-04-12T00:05:23.026Z,2.20
2023-04-12T00:08:10.821Z,2.00
2023-04-12T00:10:56.729Z,1.57
2023-04-12T00:13:42.850Z,1.90
2023-04-12T00:16:28.748Z,1.73
2023-04-12T00:19:17.903Z,1.50
2023-04-12T00:22:03.410Z,1.70
2023-04-12T00:24:49.680Z,2.03
2023-04-12T00:27:35.260Z,1.30
2023-04-12T00:30:23.463Z,1.57
2023-04-12T00:33:11.764Z,2.03
2023-04-12T00:35:57.300Z,2.17
2023-04-12T00:38:45.876Z,1.80
2023-04-12T00:41:31.900Z,1.67
2023-04-12T00:44:18.338Z,1.53
2023-04-12T00:47:08.120Z,1.70
2023-04-12T00:49:56.785Z,1.70
2023-04-12T00:52:44.837Z,1.80
2023-04-12T00:55:31.223Z,1.90
2023-04-12T00:58:17.112Z,1.33
2023-04-12T01:01:02.864Z,1.43
2023-04-12T01:03:53.209Z,1.60
2023-04-12T01:06:51.237Z,1.80
2023-04-12T01:09:52.525Z,1.30
2023-04-12T01:13:13.018Z,1.87
2023-04-12T01:16:00.207Z,2.07
2023-04-12T01:18:51.978Z,1.60
2023-04-12T01:22:02.658Z,1.40
2023-04-12T01:25:00.460Z,2.07
2023-04-12T01:27:48.949Z,2.10
2023-04-12T01:30:34.545Z,2.20
2023-04-12T01:33:22.056Z,1.60
2023-04-12T01:36:20.764Z,1.93
2023-04-12T01:39:07.842Z,2.23
2023-04-12T01:41:53.631Z,2.23
2023-04-12T01:44:44.411Z,2.30
2023-04-12T01:47:31.511Z,2.00
2023-04-12T01:50:19.841Z,2.33
2023-04-12T01:53:18.126Z,3.00
2023-04-12T01:56:08.697Z,2.00
2023-04-12T01:58:56.216Z,2.30
2023-04-12T02:01:42.285Z,2.30
2023-04-12T02:04:28.931Z,2.30
2023-04-12T02:07:18.747Z,2.20
2023-04-12T02:10:04.636Z,2.27
2023-04-12T02:12:54.345Z,2.10
2023-04-12T02:15:41.814Z,2.10
2023-04-12T02:18:27.922Z,2.47
2023-04-12T02:21:13.305Z,2.30
2023-04-12T02:24:00.994Z,2.30
2023-04-12T02:26:46.631Z,2.30
2023-04-12T02:29:32.261Z,2.80
2023-04-12T02:32:18.316Z,2.70
2023-04-12T02:35:04.219Z,2.53
2023-04-12T02:37:50.240Z,1.90
2023-04-12T02:40:42.056Z,2.40
2023-04-12T02:43:27.747Z,2.40
2023-04-12T02:46:19.727Z,2.40
2023-04-12T02:49:05.957Z,2.27
2023-04-12T02:51:51.206Z,2.00
2023-04-12T02:54:37.459Z,2.60
2023-04-12T02:57:23.457Z,1.73
2023-04-12T03:00:12.313Z,2.23
2023-04-12T03:02:59.074Z,2.30
2023-04-12T03:05:47.324Z,2.67
2023-04-12T03:08:32.904Z,2.63
2023-04-12T03:11:18.374Z,1.93
2023-04-12T03:14:06.331Z,2.70
2023-04-12T03:16:53.578Z,2.60
2023-04-12T03:19:41.279Z,2.33
2023-04-12T03:22:29.096Z,2.63
2023-04-12T03:25:15.125Z,2.87
2023-04-12T03:28:00.651Z,3.33
2023-04-12T03:30:46.352Z,2.40
2023-04-12T03:33:31.660Z,3.40
2023-04-12T03:36:17.045Z,2.73
2023-04-12T03:39:02.193Z,2.70
2023-04-12T03:41:49.677Z,2.33
2023-04-12T03:44:37.589Z,3.17
2023-04-12T03:47:23.159Z,2.70
2023-04-12T03:50:12.272Z,2.80
2023-04-12T03:53:00.589Z,3.10
2023-04-12T03:55:45.936Z,2.77
2023-04-12T03:58:33.771Z,3.20
2023-04-12T04:01:19.299Z,3.30
2023-04-12T04:04:07.234Z,3.10
2023-04-12T04:06:53.095Z,2.57
2023-04-12T04:09:41.544Z,2.70
2023-04-12T04:12:29.173Z,3.50
2023-04-12T04:15:15.565Z,3.53
2023-04-12T04:18:01.527Z,3.20
2023-04-12T04:20:47.380Z,3.20
2023-04-12T04:23:39.843Z,3.10
2023-04-12T04:26:33.331Z,3.10
2023-04-12T04:29:18.648Z,3.10
2023-04-12T04:32:04.521Z,3.10
2023-04-12T04:34:49.935Z,3.07
2023-04-12T04:37:35.388Z,3.63
2023-04-12T04:40:22.033Z,3.23
2023-04-12T04:43:08.366Z,3.30
2023-04-12T04:45:56.963Z,3.27
2023-04-12T04:48:42.414Z,3.90
2023-04-12T04:51:30.090Z,3.90
2023-04-12T04:54:16.651Z,3.47
2023-04-12T04:57:03.063Z,3.13
2023-04-12T04:59:48.746Z,3.20
2023-04-12T05:02:34.765Z,3.00
2023-04-12T05:05:23.325Z,2.80
2023-04-12T05:08:09.683Z,2.70
2023-04-12T05:10:56.876Z,3.70
2023-04-12T05:13:42.526Z,3.30
2023-04-12T05:16:28.044Z,3.30
2023-04-12T05:19:15.920Z,3.83
2023-04-12T05:22:03.631Z,4.07
2023-04-12T05:24:51.866Z,4.37
2023-04-12T05:27:39.370Z,3.47
2023-04-12T05:30:25.040Z,3.93
2023-04-12T05:33:11.249Z,3.83
2023-04-12T05:35:56.417Z,4.10
2023-04-12T05:38:41.796Z,3.43
2023-04-12T05:41:27.350Z,3.97
2023-04-12T05:44:12.720Z,3.97
2023-04-12T05:47:00.766Z,4.07
2023-04-12T05:49:46.353Z,3.73
2023-04-12T05:52:31.972Z,3.80
2023-04-12T05:55:19.792Z,3.03
2023-04-12T05:58:05.144Z,3.57
2023-04-12T06:00:50.320Z,3.90
2023-04-12T06:03:36.330Z,3.77
2023-04-12T06:06:24.228Z,3.83
2023-04-12T06:09:10.538Z,3.97
2023-04-12T06:11:57.228Z,3.97
2023-04-12T06:14:43.090Z,3.40
2023-04-12T06:17:29.336Z,3.10
2023-04-12T06:20:15.861Z,3.40
2023-04-12T06:23:01.382Z,3.90
2023-04-12T06:25:47.893Z,3.40
2023-04-12T06:28:33.466Z,2.67
2023-04-12T06:31:18.813Z,3.33
2023-04-12T06:34:04.083Z,3.27
2023-04-12T06:36:52.231Z,3.40
2023-04-12T06:39:37.923Z,3.40
2023-04-12T06:42:24.108Z,2.70
2023-04-12T06:45:09.816Z,3.60
2023-04-12T06:47:57.008Z,3.20
2023-04-12T06:50:42.975Z,3.63
2023-04-12T06:53:29.086Z,3.73
2023-04-12T06:56:16.589Z,3.50
2023-04-12T06:59:03.416Z,2.63
2023-04-12T07:01:48.678Z,3.03
2023-04-12T07:04:36.652Z,3.40
2023-04-12T07:07:22.447Z,2.60
2023-04-12T07:10:08.637Z,2.67
2023-04-12T07:12:54.006Z,2.90
2023-04-12T07:15:39.480Z,2.70
2023-04-12T07:18:28.083Z,3.37
2023-04-12T07:21:17.716Z,2.50
2023-04-12T07:24:03.953Z,2.80
2023-04-12T07:26:49.641Z,2.37
2023-04-12T07:29:38.215Z,2.33
2023-04-12T07:32:23.838Z,2.20
2023-04-12T07:35:10.240Z,2.80
2023-04-12T07:37:58.351Z,1.83
2023-04-12T07:40:44.542Z,2.53
2023-04-12T07:43:30.270Z,1.87
2023-04-12T07:46:15.659Z,2.13
2023-04-12T07:49:01.517Z,2.00
2023-04-12T07:51:47.492Z,1.50
2023-04-12T07:54:33.153Z,1.70
2023-04-12T07:57:21.303Z,1.83
2023-04-12T08:00:09.864Z,1.27
2023-04-12T08:02:56.982Z,1.17
2023-04-12T08:05:42.935Z,1.10
2023-04-12T08:08:30.516Z,1.70
2023-04-12T08:11:16.164Z,1.30
2023-04-12T08:14:01.741Z,0.90
2023-04-12T08:16:47.087Z,1.53
2023-04-12T08:19:35.283Z,1.70
2023-04-12T08:22:21.162Z,1.20
2023-04-12T08:25:09.475Z,1.10
2023-04-12T08:27:57.458Z,1.30
2023-04-12T08:30:43.790Z,1.00
2023-04-12T08:33:29.396Z,0.80
2023-04-12T08:36:15.692Z,1.20
2023-04-12T08:39:02.044Z,0.87
2023-04-12T08:41:48.401Z,0.93
2023-04-12T08:44:38.594Z,1.10
2023-04-12T08:47:27.292Z,0.97
2023-04-12T08:50:14.161Z,1.10
2023-04-12T08:53:00.057Z,1.03
2023-04-12T08:55:46.122Z,1.10
2023-04-12T08:58:34.823Z,1.03
2023-04-12T09:01:21.422Z,1.43
2023-04-12T09:04:12.639Z,0.73
2023-04-12T09:06:58.375Z,1.37
2023-04-12T09:09:45.866Z,1.00
2023-04-12T09:12:31.311Z,1.27
2023-04-12T09:15:17.723Z,0.80
2023-04-12T09:18:04.530Z,1.33
2023-04-12T09:20:50.223Z,1.07
2023-04-12T09:23:38.172Z,1.10
2023-04-12T09:26:30.287Z,1.10
2023-04-12T09:29:27.857Z,1.00
2023-04-12T09:32:13.053Z,1.23
2023-04-12T09:35:01.241Z,1.00
2023-04-12T09:37:56.647Z,1.43
2023-04-12T09:40:45.863Z,1.17
2023-04-12T09:43:39.283Z,1.03
2023-04-12T09:46:24.719Z,1.20
2023-04-12T09:49:10.822Z,1.03
2023-04-12T09:51:59.602Z,1.10
2023-04-12T09:54:47.925Z,1.00
2023-04-12T09:57:34.351Z,0.93
2023-04-12T10:00:26.877Z,1.17
2023-04-12T10:03:13.133Z,1.40
2023-04-12T10:06:03.518Z,1.10
2023-04-12T10:08:50.171Z,0.80
2023-04-12T10:11:37.457Z,1.00
2023-04-12T10:14:23.839Z,1.60
2023-04-12T10:17:17.102Z,1.00
2023-04-12T10:20:05.311Z,1.00
2023-04-12T10:22:53.160Z,1.00
2023-04-12T10:25:45.717Z,1.30
2023-04-12T10:28:31.292Z,1.10
2023-04-12T10:31:30.585Z,1.00
2023-04-12T10:34:16.705Z,1.10
2023-04-12T10:37:02.878Z,1.40
2023-04-12T10:39:55.609Z,1.40
2023-04-12T10:42:41.215Z,1.10
2023-04-12T10:45:33.942Z,1.40
2023-04-12T10:48:36.147Z,0.87
2023-04-12T10:51:28.047Z,1.10
2023-04-12T10:54:17.030Z,0.90
2023-04-12T10:57:04.348Z,1.00
2023-04-12T11:00:16.627Z,1.07
2023-04-12T11:03:07.965Z,0.80
2023-04-12T11:06:12.761Z,1.23
2023-04-12T11:09:06.214Z,1.37
2023-04-12T11:11:58.945Z,0.90
2023-04-12T11:14:52.109Z,0.80
2023-04-12T11:17:38.444Z,0.87
2023-04-12T11:20:27.493Z,1.10
2023-04-12T11:23:13.186Z,1.20
2023-04-12T11:25:59.003Z,0.97
2023-04-12T11:28:44.499Z,1.00
2023-04-12T11:31:30.275Z,1.20
2023-04-12T11:34:22.160Z,0.93
2023-04-12T11:37:08.843Z,1.30
2023-04-12T11:39:57.097Z,0.90
2023-04-12T11:42:42.740Z,0.80
2023-04-12T11:45:29.437Z,1.37
2023-04-12T11:48:16.935Z,1.60
2023-04-12T11:51:19.352Z,1.23
2023-04-12T11:54:05.127Z,0.80
2023-04-12T11:56:50.784Z,0.90
2023-04-12T11:59:38.634Z,1.50
2023-04-12T12:02:25.164Z,1.07
2023-04-12T12:05:11.772Z,1.20
2023-04-12T12:07:58.872Z,1.10
2023-04-12T12:11:04.004Z,1.30
2023-04-12T12:13:53.582Z,0.93
2023-04-12T12:16:41.448Z,1.00
2023-04-12T12:19:28.268Z,0.80
2023-04-12T12:22:16.237Z,0.90
2023-04-12T12:25:02.007Z,1.20
2023-04-12T12:27:51.287Z,0.97
2023-04-12T12:30:40.165Z,0.90
2023-04-12T12:33:46.328Z,1.67
2023-04-12T12:36:38.660Z,1.30
2023-04-12T12:39:24.309Z,1.10
2023-04-12T12:42:12.355Z,1.20
2023-04-12T12:44:58.307Z,1.00
2023-04-12T12:47:54.823Z,0.90
2023-04-12T12:50:42.566Z,0.90
2023-04-12T12:53:30.475Z,1.00
2023-04-12T12:56:16.059Z,0.90
2023-04-12T12:59:02.096Z,1.83
2023-04-12T13:01:51.102Z,1.00
2023-04-12T13:04:38.968Z,1.00
2023-04-12T13:07:24.671Z,1.17
2023-04-12T13:10:10.638Z,1.13
2023-04-12T13:12:59.233Z,1.20
2023-04-12T13:15:46.868Z,0.80
2023-04-12T13:18:32.585Z,0.90
2023-04-12T13:21:17.699Z,0.97
2023-04-12T13:24:03.622Z,0.80
2023-04-12T13:26:49.225Z,1.17
2023-04-12T13:29:34.832Z,1.20
2023-04-12T13:32:20.702Z,1.00
2023-04-12T13:35:06.818Z,1.07
2023-04-12T13:37:52.246Z,0.90
2023-04-12T13:40:37.848Z,0.70
2023-04-12T13:43:25.747Z,0.93
2023-04-12T13:46:13.289Z,1.13
2023-04-12T13:48:59.389Z,0.90
2023-04-12T13:51:47.250Z,1.00
2023-04-12T13:54:32.699Z,1.00
2023-04-12T13:57:18.149Z,1.10
2023-04-12T14:00:06.308Z,1.10
2023-04-12T14:02:51.948Z,1.20
2023-04-12T14:05:37.868Z,1.33
2023-04-12T14:08:23.921Z,1.10
2023-04-12T14:11:09.997Z,1.00
2023-04-12T14:13:55.703Z,1.20
2023-04-12T14:16:41.249Z,1.10
2023-04-12T14:19:29.095Z,1.37
2023-04-12T14:22:14.531Z,1.00
2023-04-12T14:25:02.953Z,1.10
2023-04-12T14:27:48.285Z,1.10
2023-04-12T14:30:33.662Z,1.13
2023-04-12T14:33:21.265Z,1.43
2023-04-12T14:36:08.281Z,1.20
2023-04-12T14:38:53.688Z,0.90
2023-04-12T14:41:40.662Z,1.60
2023-04-12T14:44:27.445Z,1.00
2023-04-12T14:47:12.903Z,1.10
2023-04-12T14:49:58.346Z,1.27
2023-04-12T14:52:43.967Z,1.00
2023-04-12T14:55:29.240Z,1.03
2023-04-12T14:58:14.912Z,1.43
2023-04-12T15:01:01.038Z,1.03
2023-04-12T15:03:47.537Z,1.10
2023-04-12T15:06:42.311Z,0.90
2023-04-12T15:09:28.626Z,1.30
2023-04-12T15:12:14.256Z,1.13
2023-04-12T15:15:06.278Z,0.90
2023-04-12T15:17:54.484Z,1.33
2023-04-12T15:20:40.203Z,1.10
2023-04-12T15:23:28.933Z,1.13
2023-04-12T15:26:14.653Z,1.30
2023-04-12T15:29:00.528Z,1.60
2023-04-12T15:31:46.200Z,1.37
2023-04-12T15:34:33.947Z,1.13
2023-04-12T15:37:19.916Z,1.40
2023-04-12T15:40:13.723Z,1.47
2023-04-12T15:42:59.135Z,1.03
2023-04-12T15:45:45.090Z,1.50
2023-04-12T15:48:30.738Z,1.53
2023-04-12T15:51:16.544Z,1.77
2023-04-12T15:54:02.225Z,1.27
2023-04-12T15:56:47.493Z,1.50
2023-04-12T15:59:36.933Z,1.47
2023-04-12T16:02:24.957Z,1.23
2023-04-12T16:05:10.476Z,1.40
2023-04-12T16:07:56.540Z,1.70
2023-04-12T16:10:42.099Z,1.47
2023-04-12T16:13:28.219Z,1.57
2023-04-12T16:16:17.710Z,2.00
2023-04-12T16:19:03.356Z,1.43
2023-04-12T16:21:51.047Z,1.63
2023-04-12T16:24:37.424Z,1.90
2023-04-12T16:27:23.689Z,1.63
2023-04-12T16:30:12.861Z,2.20
2023-04-12T16:33:00.400Z,1.70
2023-04-12T16:35:46.287Z,1.87
2023-04-12T16:38:34.901Z,1.90
2023-04-12T16:41:20.458Z,1.90
2023-04-12T16:44:05.702Z,1.97
2023-04-12T16:46:51.460Z,1.60
2023-04-12T16:49:39.319Z,1.70
2023-04-12T16:52:25.136Z,1.80
2023-04-12T16:55:11.425Z,1.93
2023-04-12T16:57:59.291Z,2.60
2023-04-12T17:00:45.321Z,2.40
2023-04-12T17:03:30.757Z,2.20
2023-04-12T17:06:17.152Z,2.03
2023-04-12T17:09:04.944Z,1.93
2023-04-12T17:11:50.560Z,2.00
2023-04-12T17:14:38.721Z,2.50
2023-04-12T17:17:24.296Z,2.77
2023-04-12T17:20:11.490Z,2.20
2023-04-12T17:22:59.770Z,1.90
2023-04-12T17:25:47.460Z,2.20
2023-04-12T17:28:35.803Z,1.77
2023-04-12T17:31:27.016Z,1.90
2023-04-12T17:34:12.598Z,1.97
2023-04-12T17:36:58.572Z,1.77
2023-04-12T17:39:44.163Z,2.10
2023-04-12T17:42:32.596Z,1.57
2023-04-12T17:45:21.988Z,2.30
2023-04-12T17:48:11.283Z,1.63
2023-04-12T17:50:56.957Z,2.87
2023-04-12T17:53:42.626Z,1.77
2023-04-12T17:56:28.827Z,2.00
2023-04-12T17:59:14.721Z,2.00
2023-04-12T18:02:03.885Z,1.50
2023-04-12T18:04:49.690Z,1.77
2023-04-12T18:07:35.528Z,1.50
2023-04-12T18:10:25.710Z,2.03
2023-04-12T18:13:11.594Z,2.00
2023-04-12T18:15:57.573Z,1.63
2023-04-12T18:18:43.256Z,1.80
2023-04-12T18:21:29.310Z,1.67
2023-04-12T18:24:16.525Z,1.87
2023-04-12T18:27:04.313Z,2.37
2023-04-12T18:29:49.704Z,1.67
2023-04-12T18:32:37.808Z,2.50
2023-04-12T18:35:25.994Z,1.90
2023-04-12T18:38:11.331Z,1.73
2023-04-12T18:40:56.542Z,2.37
2023-04-12T18:43:42.556Z,1.63
2023-04-12T18:46:29.624Z,1.70
2023-04-12T18:49:17.430Z,1.73
2023-04-12T18:52:02.772Z,1.40
2023-04-12T18:54:50.451Z,1.73
2023-04-12T18:57:39.363Z,1.30
2023-04-12T19:00:24.933Z,1.93
2023-04-12T19:03:12.518Z,1.60
2023-04-12T19:05:59.062Z,1.87
2023-04-12T19:08:44.422Z,1.97
2023-04-12T19:11:33.205Z,1.17
2023-04-12T19:14:22.553Z,1.40
2023-04-12T19:17:10.296Z,1.90
2023-04-12T19:19:56.220Z,1.43
2023-04-12T19:22:42.300Z,2.00
2023-04-12T19:25:31.478Z,1.60
2023-04-12T19:28:19.113Z,1.33
2023-04-12T19:31:10.282Z,1.70
2023-04-12T19:33:56.679Z,1.37
2023-04-12T19:36:45.106Z,1.30
2023-04-12T19:39:32.505Z,1.20
2023-04-12T19:42:18.164Z,1.33
2023-04-12T19:45:03.778Z,1.87
2023-04-12T19:47:49.391Z,1.57
2023-04-12T19:50:36.341Z,2.23
2023-04-12T19:53:22.599Z,1.47
2023-04-12T19:56:12.796Z,1.77
2023-04-12T19:58:58.172Z,1.50
2023-04-12T20:01:49.692Z,1.60
2023-04-12T20:04:35.355Z,1.80
2023-04-12T20:07:23.451Z,1.70
2023-04-12T20:10:10.370Z,1.33
2023-04-12T20:12:56.126Z,2.00
2023-04-12T20:15:45.066Z,1.57
2023-04-12T20:18:31.419Z,1.40
2023-04-12T20:21:16.765Z,1.57
2023-04-12T20:24:03.973Z,1.40
2023-04-12T20:26:50.146Z,1.70
2023-04-12T20:29:39.684Z,1.77
2023-04-12T20:32:25.409Z,2.20
2023-04-12T20:35:13.128Z,1.37
2023-04-12T20:37:58.418Z,1.53
2023-04-12T20:40:45.042Z,1.20
2023-04-12T20:43:32.889Z,2.03
2023-04-12T20:46:20.720Z,1.57
2023-04-12T20:49:07.372Z,1.40
2023-04-12T20:51:56.782Z,1.23
2023-04-12T20:54:45.768Z,1.37
2023-04-12T20:57:31.095Z,1.43
2023-04-12T21:00:23.735Z,1.40
2023-04-12T21:03:12.611Z,1.13
2023-04-12T21:06:02.719Z,1.50
2023-04-12T21:08:48.814Z,1.60
2023-04-12T21:11:41.119Z,1.70
2023-04-12T21:14:26.776Z,1.63
2023-04-12T21:17:13.192Z,1.40
2023-04-12T21:19:59.231Z,1.43
2023-04-12T21:22:47.421Z,1.80
2023-04-12T21:25:34.500Z,1.63
2023-04-12T21:28:23.294Z,1.87
2023-04-12T21:31:12.222Z,2.00
2023-04-12T21:34:03.872Z,1.60
2023-04-12T21:36:49.296Z,1.43
2023-04-12T21:39:35.158Z,1.77
2023-04-12T21:42:20.516Z,2.23
2023-04-12T21:45:09.912Z,1.80
2023-04-12T21:47:55.907Z,1.57
2023-04-12T21:50:42.029Z,1.70
2023-04-12T21:53:27.315Z,1.90
2023-04-12T21:56:12.862Z,2.10
2023-04-12T21:59:00.112Z,1.70
2023-04-12T22:01:45.920Z,1.70
2023-04-12T22:04:31.498Z,1.80
2023-04-12T22:07:17.704Z,1.80
2023-04-12T22:10:05.684Z,2.00
2023-04-12T22:12:51.457Z,1.80
2023-04-12T22:15:40.522Z,2.37
2023-04-12T22:18:31.738Z,2.30
2023-04-12T22:21:17.776Z,1.80
2023-04-12T22:24:03.442Z,2.50
2023-04-12T22:26:48.679Z,1.87
2023-04-12T22:29:37.823Z,1.83
2023-04-12T22:32:23.549Z,1.97
2023-04-12T22:35:11.705Z,1.73
2023-04-12T22:37:56.988Z,2.27
2023-04-12T22:40:43.168Z,2.10
2023-04-12T22:43:38.014Z,1.97
2023-04-12T22:46:23.606Z,2.60
2023-04-12T22:49:09.746Z,2.10
2023-04-12T22:51:55.954Z,2.17
2023-04-12T22:54:41.498Z,2.00
2023-04-12T22:57:27.478Z,2.77
2023-04-12T23:00:17.260Z,2.50
2023-04-12T23:03:04.229Z,3.07
2023-04-12T23:05:50.293Z,2.97
2023-04-12T23:08:36.448Z,3.53
2023-04-12T23:11:23.740Z,3.70
2023-04-12T23:14:12.977Z,4.77
2023-04-12T23:16:58.563Z,4.63
2023-04-12T23:19:47.030Z,4.57
2023-04-12T23:22:55.978Z,3.50
2023-04-12T23:25:43.453Z,2.90
2023-04-12T23:28:28.829Z,3.53
2023-04-12T23:31:15.132Z,3.00
2023-04-12T23:34:06.142Z,2.47
2023-04-12T23:36:52.237Z,3.10
2023-04-12T23:39:37.894Z,2.77
2023-04-12T23:42:25.395Z,2.50
2023-04-12T23:45:12.014Z,2.87
2023-04-12T23:47:57.621Z,3.00
2023-04-12T23:50:46.556Z,2.30
2023-04-12T23:53:32.256Z,3.47
2023-04-12T23:56:17.983Z,3.33
2023-04-12T23:59:03.561Z,2.90
